Time;durP1;ratioP1;P1;durP2;ratioP2;P2;SDS_P1;SDS_P2;PMS_P1;PMS_P2;Temp;Humidity;BMP_temperature;BMP_pressure;BME280_temperature;BME280_humidity;BME280_pressure;Samples;Min_cycle;Max_cycle;Signal;HPM_P1;HPM_P2
2024/01/02 00:01:54;;;;;;;6.05;1.70;;;;;;;;;;5155327;27;20042;-64
2024/01/02 00:04:21;;;;;;;7.03;1.80;;;;;;;;;;5156431;27;20407;-64
2024/01/02 00:06:48;;;;;;;6.00;2.03;;;;;;;;;;5156848;27;20051;-64
2024/01/02 00:09:16;;;;;;;7.25;1.95;;;;;;;;;;5156326;27;20058;-64
2024/01/02 00:11:42;;;;;;;7.03;1.70;;;;;;;;;;5156635;27;20091;-64
2024/01/02 00:14:09;;;;;;;5.93;1.90;;;;;;;;;;5156768;27;20065;-64
2024/01/02 00:16:36;;;;;;;6.43;1.90;;;;;;;;;;5156763;27;20051;-64
2024/01/02 00:19:04;;;;;;;5.20;1.83;;;;;;;;;;5156638;27;20074;-64
2024/01/02 00:21:31;;;;;;;7.32;1.88;;;;;;;;;;5156519;27;20055;-64
2024/01/02 00:23:59;;;;;;;4.60;1.75;;;;;;;;;;5156746;27;20403;-64
2024/01/02 00:26:25;;;;;;;8.57;2.15;;;;;;;;;;5156329;27;20061;-64
2024/01/02 00:28:52;;;;;;;7.60;1.60;;;;;;;;;;5156639;27;20055;-64
2024/01/02 00:31:19;;;;;;;7.95;1.50;;;;;;;;;;5156284;27;20051;-64
2024/01/02 00:33:46;;;;;;;7.93;2.13;;;;;;;;;;5156357;27;20051;-64
2024/01/02 00:36:14;;;;;;;6.25;1.80;;;;;;;;;;5155889;27;20055;-64
2024/01/02 00:38:41;;;;;;;5.38;1.60;;;;;;;;;;5156375;27;20050;-64
2024/01/02 00:41:08;;;;;;;5.28;1.42;;;;;;;;;;5156038;27;20054;-64
2024/01/02 00:43:35;;;;;;;5.50;1.90;;;;;;;;;;5156230;27;20054;-64
2024/01/02 00:46:02;;;;;;;6.78;1.75;;;;;;;;;;5155897;27;20050;-64
2024/01/02 00:48:29;;;;;;;4.30;1.55;;;;;;;;;;5155942;27;20407;-64
2024/01/02 00:50:56;;;;;;;4.25;1.27;;;;;;;;;;5155489;27;20050;-64
2024/01/02 00:53:24;;;;;;;7.20;1.52;;;;;;;;;;5155527;27;20055;-64
2024/01/02 00:55:51;;;;;;;6.13;1.40;;;;;;;;;;5155552;27;20057;-64
2024/01/02 00:58:18;;;;;;;5.43;1.30;;;;;;;;;;5156180;27;20059;-64
2024/01/02 01:00:44;;;;;;;5.03;1.50;;;;;;;;;;5155560;27;20050;-64
2024/01/02 01:03:11;;;;;;;5.93;1.48;;;;;;;;;;5155611;27;20047;-64
2024/01/02 01:05:38;;;;;;;3.92;1.40;;;;;;;;;;5155496;27;20077;-64
2024/01/02 01:08:05;;;;;;;5.38;1.23;;;;;;;;;;5156406;27;20042;-64
2024/01/02 01:10:33;;;;;;;3.53;1.00;;;;;;;;;;5153243;27;20057;-64
2024/01/02 01:13:00;;;;;;;5.60;1.40;;;;;;;;;;5140277;27;20054;-64
2024/01/02 01:15:27;;;;;;;3.25;1.20;;;;;;;;;;5134299;27;20047;-64
2024/01/02 01:17:54;;;;;;;5.13;1.40;;;;;;;;;;5134718;27;20503;-64
2024/01/02 01:20:21;;;;;;;5.50;1.30;;;;;;;;;;5134424;27;20128;-66
2024/01/02 01:22:48;;;;;;;3.42;1.08;;;;;;;;;;5134994;27;20066;-64
2024/01/02 01:25:14;;;;;;;3.88;1.23;;;;;;;;;;5134664;27;20484;-64
2024/01/02 01:27:43;;;;;;;4.15;1.40;;;;;;;;;;5134815;27;20055;-64
2024/01/02 01:30:10;;;;;;;2.70;1.00;;;;;;;;;;5134282;27;20073;-64
2024/01/02 01:32:36;;;;;;;4.70;1.40;;;;;;;;;;5134808;27;20054;-64
2024/01/02 01:35:03;;;;;;;3.67;1.30;;;;;;;;;;5134654;27;20051;-64
2024/01/02 01:37:30;;;;;;;2.75;1.23;;;;;;;;;;5134212;27;20062;-64
2024/01/02 01:39:57;;;;;;;2.90;1.05;;;;;;;;;;5133910;27;20070;-64
2024/01/02 01:42:24;;;;;;;8.43;1.20;;;;;;;;;;5134480;27;20468;-64
2024/01/02 01:44:52;;;;;;;4.18;1.30;;;;;;;;;;5134286;27;20488;-64
2024/01/02 01:47:19;;;;;;;3.25;1.20;;;;;;;;;;5134407;27;20058;-64
2024/01/02 01:49:46;;;;;;;5.05;1.40;;;;;;;;;;5142894;27;20054;-64
2024/01/02 01:52:14;;;;;;;4.70;1.23;;;;;;;;;;5155017;27;20042;-64
2024/01/02 01:54:41;;;;;;;4.82;1.25;;;;;;;;;;5154640;27;20057;-64
2024/01/02 01:57:07;;;;;;;3.10;1.42;;;;;;;;;;5154970;27;20054;-64
2024/01/02 01:59:34;;;;;;;3.90;1.45;;;;;;;;;;5154787;27;20051;-64
2024/01/02 02:02:03;;;;;;;4.75;1.48;;;;;;;;;;5154578;27;20047;-64
2024/01/02 02:04:30;;;;;;;6.22;1.15;;;;;;;;;;5154758;27;20054;-64
2024/01/02 02:06:57;;;;;;;3.78;1.08;;;;;;;;;;5154946;27;20048;-64
2024/01/02 02:09:24;;;;;;;2.70;0.90;;;;;;;;;;5154415;27;20058;-64
2024/01/02 02:11:50;;;;;;;5.53;1.80;;;;;;;;;;5154579;27;20391;-65
2024/01/02 02:14:17;;;;;;;4.00;0.95;;;;;;;;;;5154562;27;20050;-64
2024/01/02 02:16:44;;;;;;;5.80;1.13;;;;;;;;;;5154488;27;20046;-64
2024/01/02 02:19:13;;;;;;;4.40;1.15;;;;;;;;;;5154531;27;20077;-64
2024/01/02 02:21:39;;;;;;;3.05;1.00;;;;;;;;;;5154341;27;20058;-64
2024/01/02 02:24:07;;;;;;;2.53;0.88;;;;;;;;;;5153761;27;20502;-64
2024/01/02 02:26:34;;;;;;;2.97;0.93;;;;;;;;;;5154323;27;20046;-64
2024/01/02 02:29:01;;;;;;;2.45;1.10;;;;;;;;;;5154479;27;20062;-65
2024/01/02 02:31:28;;;;;;;3.00;0.80;;;;;;;;;;5154624;27;20047;-64
2024/01/02 02:33:55;;;;;;;3.10;0.90;;;;;;;;;;5153930;27;20057;-64
2024/01/02 02:36:21;;;;;;;4.50;1.10;;;;;;;;;;5154033;27;20434;-64
2024/01/02 02:38:48;;;;;;;4.75;1.00;;;;;;;;;;5153889;27;20069;-65
2024/01/02 02:41:16;;;;;;;3.67;1.00;;;;;;;;;;5154063;27;20046;-65
2024/01/02 02:43:43;;;;;;;3.20;0.90;;;;;;;;;;5153871;27;20053;-65
2024/01/02 02:46:10;;;;;;;3.97;0.93;;;;;;;;;;5154250;27;20059;-65
2024/01/02 02:48:37;;;;;;;8.27;1.10;;;;;;;;;;5154301;27;20496;-66
2024/01/02 02:51:04;;;;;;;4.82;0.85;;;;;;;;;;5153553;27;20058;-66
2024/01/02 02:53:31;;;;;;;6.00;1.10;;;;;;;;;;5153779;27;20062;-66
2024/01/02 02:55:57;;;;;;;3.53;1.20;;;;;;;;;;5154216;27;20050;-66
2024/01/02 02:58:26;;;;;;;4.78;1.20;;;;;;;;;;5154224;27;20054;-66
2024/01/02 03:00:53;;;;;;;5.03;1.10;;;;;;;;;;5154486;27;20062;-65
2024/01/02 03:03:20;;;;;;;1.48;0.80;;;;;;;;;;5153741;27;20066;-64
2024/01/02 03:05:46;;;;;;;2.78;0.63;;;;;;;;;;5153433;27;20046;-65
2024/01/02 03:08:13;;;;;;;4.30;0.90;;;;;;;;;;5153644;27;20117;-65
2024/01/02 03:10:40;;;;;;;3.05;0.82;;;;;;;;;;5154107;27;20059;-65
2024/01/02 03:13:07;;;;;;;1.67;0.70;;;;;;;;;;5153737;27;20120;-65
2024/01/02 03:15:35;;;;;;;4.15;0.63;;;;;;;;;;5153864;27;20057;-65
2024/01/02 03:18:02;;;;;;;1.90;0.60;;;;;;;;;;5154090;27;20479;-65
2024/01/02 03:20:28;;;;;;;1.48;0.68;;;;;;;;;;5153791;27;20050;-65
2024/01/02 03:22:55;;;;;;;2.10;0.70;;;;;;;;;;5153708;27;20042;-66
2024/01/02 03:25:22;;;;;;;3.17;0.73;;;;;;;;;;5153561;27;20051;-65
2024/01/02 03:27:49;;;;;;;1.83;0.60;;;;;;;;;;5153879;27;20475;-66
2024/01/02 03:30:16;;;;;;;1.27;0.52;;;;;;;;;;5153475;27;20050;-66
2024/01/02 03:32:44;;;;;;;1.83;0.50;;;;;;;;;;5153803;27;20355;-66
2024/01/02 03:35:11;;;;;;;2.10;0.70;;;;;;;;;;5153464;27;20050;-66
2024/01/02 03:37:38;;;;;;;3.42;0.70;;;;;;;;;;5157033;27;20059;-66
2024/01/02 03:40:06;;;;;;;2.53;0.60;;;;;;;;;;5157874;27;20057;-64
2024/01/02 03:42:32;;;;;;;1.92;0.68;;;;;;;;;;5157038;27;20492;-66
2024/01/02 03:44:59;;;;;;;3.65;0.60;;;;;;;;;;5157727;27;20376;-65
2024/01/02 03:47:26;;;;;;;3.20;0.65;;;;;;;;;;5157421;27;20406;-66
2024/01/02 03:49:54;;;;;;;1.00;0.47;;;;;;;;;;5157043;27;20061;-67
2024/01/02 03:52:21;;;;;;;0.80;0.43;;;;;;;;;;5157649;27;20054;-67
2024/01/02 03:54:48;;;;;;;1.48;0.35;;;;;;;;;;5157189;27;20077;-66
2024/01/02 03:57:14;;;;;;;5.30;0.68;;;;;;;;;;5157238;27;20055;-67
2024/01/02 03:59:41;;;;;;;2.08;0.75;;;;;;;;;;5157757;27;20054;-68
2024/01/02 04:02:08;;;;;;;1.55;0.57;;;;;;;;;;5157332;27;20054;-67
2024/01/02 04:04:38;;;;;;;1.17;0.50;;;;;;;;;;5157319;27;20530;-65
2024/01/02 04:07:06;;;;;;;3.42;0.60;;;;;;;;;;5157170;27;20395;-68
2024/01/02 04:09:32;;;;;;;2.30;0.60;;;;;;;;;;5156746;27;20058;-68
2024/01/02 04:11:59;;;;;;;1.15;0.60;;;;;;;;;;5157266;27;20051;-68
2024/01/02 04:14:26;;;;;;;1.58;0.75;;;;;;;;;;5156622;27;20054;-68
2024/01/02 04:16:53;;;;;;;1.70;0.55;;;;;;;;;;5157272;27;20054;-68
2024/01/02 04:19:21;;;;;;;1.98;0.50;;;;;;;;;;5157184;27;20475;-68
2024/01/02 04:21:48;;;;;;;1.30;0.60;;;;;;;;;;5156508;27;20049;-68
2024/01/02 04:24:16;;;;;;;2.67;0.60;;;;;;;;;;5156979;27;20047;-68
2024/01/02 04:26:42;;;;;;;6.53;0.90;;;;;;;;;;5157049;27;20050;-68
2024/01/02 04:29:09;;;;;;;1.95;0.68;;;;;;;;;;5156169;27;20125;-68
2024/01/02 04:31:36;;;;;;;3.83;0.60;;;;;;;;;;5156561;27;20065;-68
2024/01/02 04:34:02;;;;;;;3.28;0.70;;;;;;;;;;5156664;27;20046;-68
2024/01/02 04:36:29;;;;;;;1.58;0.77;;;;;;;;;;5155962;27;20415;-68
2024/01/02 04:38:56;;;;;;;6.05;0.88;;;;;;;;;;5156685;27;20051;-68
2024/01/02 04:41:24;;;;;;;2.65;0.65;;;;;;;;;;5156083;27;20132;-68
2024/01/02 04:43:51;;;;;;;2.33;0.50;;;;;;;;;;5156065;27;20050;-68
2024/01/02 04:46:18;;;;;;;0.82;0.40;;;;;;;;;;5156243;27;20062;-68
2024/01/02 04:48:44;;;;;;;2.13;0.50;;;;;;;;;;5156079;27;20051;-67
2024/01/02 04:51:11;;;;;;;2.35;0.80;;;;;;;;;;5156421;27;20483;-68
2024/01/02 04:53:38;;;;;;;1.45;0.60;;;;;;;;;;5156409;27;20158;-67
2024/01/02 04:56:05;;;;;;;3.38;0.70;;;;;;;;;;5156128;27;20136;-68
2024/01/02 04:58:33;;;;;;;1.00;0.50;;;;;;;;;;5156238;27;20072;-68
2024/01/02 05:01:00;;;;;;;0.77;0.45;;;;;;;;;;5156194;27;20057;-67
2024/01/02 05:03:27;;;;;;;0.88;0.50;;;;;;;;;;5155726;27;20415;-68
2024/01/02 05:05:54;;;;;;;1.10;0.43;;;;;;;;;;5155723;27;20055;-67
2024/01/02 05:08:20;;;;;;;1.40;0.80;;;;;;;;;;5155990;27;20053;-67
2024/01/02 05:10:47;;;;;;;1.40;0.80;;;;;;;;;;5155695;27;20050;-67
2024/01/02 05:13:14;;;;;;;1.67;0.77;;;;;;;;;;5155739;27;20352;-67
2024/01/02 05:15:42;;;;;;;1.58;0.50;;;;;;;;;;5155338;27;20062;-67
2024/01/02 05:18:09;;;;;;;1.23;0.68;;;;;;;;;;5155700;27;20468;-67
2024/01/02 05:20:36;;;;;;;1.00;0.50;;;;;;;;;;5155922;27;20062;-67
2024/01/02 05:23:04;;;;;;;0.90;0.52;;;;;;;;;;5155448;27;20057;-67
2024/01/02 05:25:32;;;;;;;1.67;0.60;;;;;;;;;;5155222;27;20050;-66
2024/01/02 05:27:58;;;;;;;0.80;0.50;;;;;;;;;;5155570;27;20399;-67
2024/01/02 05:30:26;;;;;;;0.57;0.40;;;;;;;;;;5155576;27;20062;-67
2024/01/02 05:32:54;;;;;;;1.48;0.40;;;;;;;;;;5155594;27;20467;-67
2024/01/02 05:35:21;;;;;;;1.38;0.50;;;;;;;;;;5154764;27;20058;-67
2024/01/02 05:37:47;;;;;;;0.70;0.45;;;;;;;;;;5154440;27;20090;-67
2024/01/02 05:40:14;;;;;;;0.70;0.40;;;;;;;;;;5154935;27;20055;-67
2024/01/02 05:42:41;;;;;;;0.70;0.40;;;;;;;;;;5154188;27;20050;-66
2024/01/02 05:45:08;;;;;;;0.65;0.30;;;;;;;;;;5153736;27;20046;-67
2024/01/02 05:47:35;;;;;;;1.13;0.40;;;;;;;;;;5154402;27;20057;-67
2024/01/02 05:50:03;;;;;;;1.27;0.52;;;;;;;;;;5154181;27;20050;-67
2024/01/02 05:52:30;;;;;;;0.90;0.50;;;;;;;;;;5153094;27;20058;-67
2024/01/02 05:54:57;;;;;;;0.98;0.40;;;;;;;;;;5151772;27;20042;-67
2024/01/02 05:57:23;;;;;;;0.90;0.50;;;;;;;;;;5154409;27;20047;-67
2024/01/02 05:59:50;;;;;;;1.63;0.40;;;;;;;;;;5153185;27;20057;-67
2024/01/02 06:02:19;;;;;;;0.57;0.30;;;;;;;;;;5154581;27;20046;-67
2024/01/02 06:04:45;;;;;;;0.65;0.32;;;;;;;;;;5153934;27;20050;-67
2024/01/02 06:07:14;;;;;;;0.30;0.20;;;;;;;;;;5154385;27;20046;-67
2024/01/02 06:09:40;;;;;;;0.65;0.35;;;;;;;;;;5154375;27;20050;-67
2024/01/02 06:12:08;;;;;;;0.50;0.25;;;;;;;;;;5154661;27;20077;-66
2024/01/02 06:14:35;;;;;;;0.98;0.40;;;;;;;;;;5154124;27;20054;-67
2024/01/02 06:17:03;;;;;;;0.47;0.30;;;;;;;;;;5154626;27;20054;-67
2024/01/02 06:19:29;;;;;;;0.40;0.20;;;;;;;;;;5154593;27;20046;-66
2024/01/02 06:21:56;;;;;;;0.63;0.35;;;;;;;;;;5153970;27;20058;-67
2024/01/02 06:24:24;;;;;;;0.63;0.30;;;;;;;;;;5154658;27;20054;-67
2024/01/02 06:26:51;;;;;;;0.45;0.28;;;;;;;;;;5154311;27;20384;-67
2024/01/02 06:29:18;;;;;;;0.70;0.20;;;;;;;;;;5153878;27;20051;-67
2024/01/02 06:31:45;;;;;;;0.55;0.35;;;;;;;;;;5154327;27;20061;-67
2024/01/02 06:34:12;;;;;;;0.57;0.20;;;;;;;;;;5154409;27;20062;-67
2024/01/02 06:36:38;;;;;;;1.35;0.40;;;;;;;;;;5154216;27;20057;-67
2024/01/02 06:39:05;;;;;;;0.50;0.30;;;;;;;;;;5153718;27;20412;-66
2024/01/02 06:41:33;;;;;;;0.80;0.40;;;;;;;;;;5154428;27;20050;-67
2024/01/02 06:44:00;;;;;;;0.30;0.20;;;;;;;;;;5153925;27;20064;-67
2024/01/02 06:46:27;;;;;;;0.40;0.20;;;;;;;;;;5153916;27;20054;-66
2024/01/02 06:48:54;;;;;;;0.52;0.30;;;;;;;;;;5154068;27;20062;-66
2024/01/02 06:51:20;;;;;;;0.22;0.20;;;;;;;;;;5153769;27;20058;-66
2024/01/02 06:53:47;;;;;;;0.35;0.22;;;;;;;;;;5154073;27;20051;-66
2024/01/02 06:56:14;;;;;;;0.90;0.50;;;;;;;;;;5154233;27;20495;-66
2024/01/02 06:58:44;;;;;;;1.52;0.90;;;;;;;;;;5154079;27;20507;-67
2024/01/02 07:01:13;;;;;;;0.65;0.40;;;;;;;;;;5154058;27;20047;-66
2024/01/02 07:03:40;;;;;;;1.27;0.32;;;;;;;;;;5153952;27;20487;-66
2024/01/02 07:06:07;;;;;;;0.65;0.43;;;;;;;;;;5153698;27;20387;-66
2024/01/02 07:08:34;;;;;;;2.65;0.60;;;;;;;;;;5153849;27;20070;-67
2024/01/02 07:11:00;;;;;;;0.55;0.30;;;;;;;;;;5156836;27;20062;-67
2024/01/02 07:13:28;;;;;;;0.98;0.60;;;;;;;;;;5158238;27;20051;-67
2024/01/02 07:15:56;;;;;;;1.20;0.70;;;;;;;;;;5157801;27;20043;-66
2024/01/02 07:18:23;;;;;;;0.80;0.50;;;;;;;;;;5157887;27;20062;-67
2024/01/02 07:20:49;;;;;;;1.77;0.70;;;;;;;;;;5157817;27;20050;-66
2024/01/02 07:23:18;;;;;;;1.17;0.68;;;;;;;;;;5158174;27;20407;-67
2024/01/02 07:25:45;;;;;;;1.13;0.60;;;;;;;;;;5157595;27;20061;-67
2024/01/02 07:28:11;;;;;;;1.25;0.60;;;;;;;;;;5157598;27;20054;-66
2024/01/02 07:30:38;;;;;;;0.98;0.50;;;;;;;;;;5157344;27;20057;-67
2024/01/02 07:33:06;;;;;;;1.30;0.80;;;;;;;;;;5157515;27;20070;-67
2024/01/02 07:35:33;;;;;;;1.00;0.52;;;;;;;;;;5157358;27;20377;-67
2024/01/02 07:38:00;;;;;;;1.77;1.00;;;;;;;;;;5156915;27;20411;-67
2024/01/02 07:40:27;;;;;;;2.15;1.20;;;;;;;;;;5157330;27;20480;-70
2024/01/02 07:42:54;;;;;;;1.80;1.20;;;;;;;;;;5157170;27;20407;-67
2024/01/02 07:45:20;;;;;;;1.70;1.20;;;;;;;;;;5157985;27;20058;-67
2024/01/02 07:47:47;;;;;;;1.75;1.45;;;;;;;;;;5157388;27;20399;-67
2024/01/02 07:50:15;;;;;;;2.10;1.65;;;;;;;;;;5156982;27;20058;-66
2024/01/02 07:52:42;;;;;;;1.80;1.40;;;;;;;;;;5157483;27;20051;-66
2024/01/02 07:55:10;;;;;;;3.30;2.40;;;;;;;;;;5157393;27;20055;-66
2024/01/02 07:57:37;;;;;;;3.63;2.38;;;;;;;;;;5157514;27;20047;-67
2024/01/02 08:00:04;;;;;;;2.50;2.13;;;;;;;;;;5156908;27;20050;-67
2024/01/02 08:02:31;;;;;;;2.75;1.92;;;;;;;;;;5157332;27;20051;-67
2024/01/02 08:04:58;;;;;;;2.80;2.33;;;;;;;;;;5157265;27;20476;-66
2024/01/02 08:07:26;;;;;;;3.05;2.60;;;;;;;;;;5157118;27;20050;-67
2024/01/02 08:09:53;;;;;;;3.00;2.40;;;;;;;;;;5156841;27;20055;-66
2024/01/02 08:12:20;;;;;;;3.67;2.80;;;;;;;;;;5156516;27;20050;-66
2024/01/02 08:14:47;;;;;;;3.08;2.40;;;;;;;;;;5156677;27;20095;-67
2024/01/02 08:17:14;;;;;;;4.40;3.42;;;;;;;;;;5156890;27;20050;-66
2024/01/02 08:19:41;;;;;;;2.90;2.58;;;;;;;;;;5156508;27;20046;-67
2024/01/02 08:22:08;;;;;;;4.25;3.13;;;;;;;;;;5155873;27;20484;-67
2024/01/02 08:24:38;;;;;;;3.95;3.50;;;;;;;;;;5156605;27;20403;-66
2024/01/02 08:27:05;;;;;;;3.65;2.80;;;;;;;;;;5156672;27;20376;-66
2024/01/02 08:29:32;;;;;;;4.90;3.35;;;;;;;;;;5156557;27;20047;-67
2024/01/02 08:31:59;;;;;;;3.85;3.22;;;;;;;;;;5156725;27;20057;-67
2024/01/02 08:34:25;;;;;;;4.65;3.50;;;;;;;;;;5156251;27;20057;-67
2024/01/02 08:36:52;;;;;;;3.60;3.08;;;;;;;;;;5156006;27;20054;-67
2024/01/02 08:39:19;;;;;;;3.70;2.50;;;;;;;;;;5156210;27;20108;-67
2024/01/02 08:41:47;;;;;;;3.25;2.40;;;;;;;;;;5156487;27;20468;-67
2024/01/02 08:44:14;;;;;;;3.20;1.83;;;;;;;;;;5156508;27;20051;-67
2024/01/02 08:46:41;;;;;;;4.22;2.10;;;;;;;;;;5156732;27;20053;-67
2024/01/02 08:49:08;;;;;;;2.97;2.05;;;;;;;;;;5155951;27;20404;-67
2024/01/02 08:51:35;;;;;;;3.13;2.40;;;;;;;;;;5156277;27;20050;-67
2024/01/02 08:54:02;;;;;;;4.20;2.70;;;;;;;;;;5156037;27;20047;-67
2024/01/02 08:56:29;;;;;;;2.60;1.85;;;;;;;;;;5156148;27;20058;-67
2024/01/02 08:58:58;;;;;;;3.50;2.15;;;;;;;;;;5155949;27;20058;-67
2024/01/02 09:01:24;;;;;;;2.70;1.85;;;;;;;;;;5156091;27;20051;-68
2024/01/02 09:03:51;;;;;;;3.42;1.88;;;;;;;;;;5155845;27;20046;-67
2024/01/02 09:06:20;;;;;;;2.63;1.85;;;;;;;;;;5155844;27;20057;-67
2024/01/02 09:08:47;;;;;;;1.83;1.35;;;;;;;;;;5155972;27;20408;-66
2024/01/02 09:11:15;;;;;;;4.22;2.30;;;;;;;;;;5155363;27;20050;-67
2024/01/02 09:13:42;;;;;;;4.93;3.60;;;;;;;;;;5155647;27;20050;-67
2024/01/02 09:16:10;;;;;;;4.18;3.28;;;;;;;;;;5155544;27;20061;-67
2024/01/02 09:18:37;;;;;;;2.45;1.60;;;;;;;;;;5155989;27;20599;-67
2024/01/02 09:21:04;;;;;;;2.25;1.30;;;;;;;;;;5155404;27;20050;-67
2024/01/02 09:23:34;;;;;;;2.88;1.70;;;;;;;;;;5155485;27;20096;-67
2024/01/02 09:26:03;;;;;;;1.95;1.00;;;;;;;;;;5155258;27;20051;-67
2024/01/02 09:28:31;;;;;;;2.40;1.63;;;;;;;;;;5155481;27;20483;-67
2024/01/02 09:30:58;;;;;;;4.95;2.83;;;;;;;;;;5154923;27;20058;-67
2024/01/02 09:33:27;;;;;;;3.75;2.25;;;;;;;;;;5155210;27;20510;-67
2024/01/02 09:35:53;;;;;;;2.50;1.70;;;;;;;;;;5155097;27;20435;-67
2024/01/02 09:38:20;;;;;;;5.32;2.85;;;;;;;;;;5155138;27;20522;-67
2024/01/02 09:40:58;;;;;;;3.95;2.63;;;;;;;;;;5155158;27;20054;-67
2024/01/02 09:43:31;;;;;;;6.45;4.28;;;;;;;;;;5154959;27;20078;-67
2024/01/02 09:46:03;;;;;;;2.67;2.20;;;;;;;;;;5155116;27;20463;-66
2024/01/02 09:48:37;;;;;;;3.55;2.30;;;;;;;;;;5155091;27;20503;-66
2024/01/02 09:51:08;;;;;;;1.80;1.50;;;;;;;;;;5155358;27;20172;-67
2024/01/02 09:53:45;;;;;;;2.40;1.40;;;;;;;;;;5154505;27;20050;-67
2024/01/02 09:56:17;;;;;;;2.42;1.50;;;;;;;;;;5154909;27;20391;-67
2024/01/02 09:58:51;;;;;;;3.15;1.42;;;;;;;;;;5154879;27;20057;-67
2024/01/02 10:01:20;;;;;;;2.65;1.90;;;;;;;;;;5154288;27;20077;-67
2024/01/02 10:03:56;;;;;;;2.55;1.83;;;;;;;;;;5154715;27;20061;-67
2024/01/02 10:06:33;;;;;;;3.20;2.20;;;;;;;;;;5154890;27;20054;-67
2024/01/02 10:09:10;;;;;;;2.10;1.60;;;;;;;;;;5154446;27;20055;-67
2024/01/02 10:11:43;;;;;;;5.07;2.97;;;;;;;;;;5154829;27;20504;-67
2024/01/02 10:14:11;;;;;;;3.03;2.67;;;;;;;;;;5154564;27;20057;-67
2024/01/02 10:16:40;;;;;;;2.65;2.38;;;;;;;;;;5154159;27;20057;-67
2024/01/02 10:19:15;;;;;;;2.92;2.50;;;;;;;;;;5154827;27;20050;-67
2024/01/02 10:21:43;;;;;;;3.88;3.17;;;;;;;;;;5154593;27;20425;-67
2024/01/02 10:24:15;;;;;;;3.05;2.75;;;;;;;;;;5154442;27;20051;-67
2024/01/02 10:26:45;;;;;;;5.53;4.13;;;;;;;;;;5154657;27;20047;-67
2024/01/02 10:29:16;;;;;;;5.03;4.53;;;;;;;;;;5154376;27;20057;-67
2024/01/02 10:31:46;;;;;;;4.65;4.15;;;;;;;;;;5154449;27;20058;-67
2024/01/02 10:34:19;;;;;;;4.22;3.67;;;;;;;;;;5153918;27;20080;-67
2024/01/02 10:36:48;;;;;;;4.47;3.78;;;;;;;;;;5153895;27;20047;-66
2024/01/02 10:39:15;;;;;;;;;;;;;;;;;;5154979;27;20062;-67
2024/01/02 10:41:51;;;;;;;7.32;5.15;;;;;;;;;;5154388;27;20371;-66
2024/01/02 10:44:23;;;;;;;5.95;5.35;;;;;;;;;;5153930;27;20499;-67
2024/01/02 10:46:55;;;;;;;6.07;5.18;;;;;;;;;;5154291;27;20042;-67
2024/01/02 10:49:33;;;;;;;4.43;4.03;;;;;;;;;;5153889;27;20047;-67
2024/01/02 10:52:02;;;;;;;4.13;3.72;;;;;;;;;;5154122;27;20479;-67
2024/01/02 10:54:34;;;;;;;4.25;3.70;;;;;;;;;;5154338;27;20053;-67
2024/01/02 10:57:03;;;;;;;4.53;3.67;;;;;;;;;;5153968;27;20051;-67
2024/01/02 10:59:43;;;;;;;3.30;2.60;;;;;;;;;;5153778;27;20062;-67
2024/01/02 11:02:14;;;;;;;2.67;2.28;;;;;;;;;;5154309;27;20399;-67
2024/01/02 11:04:45;;;;;;;2.58;1.88;;;;;;;;;;5154236;27;20051;-67
2024/01/02 11:07:14;;;;;;;2.00;1.65;;;;;;;;;;5154083;27;20051;-67
2024/01/02 11:09:44;;;;;;;2.03;1.38;;;;;;;;;;5153591;27;20054;-67
2024/01/02 11:12:11;;;;;;;1.75;1.60;;;;;;;;;;5153370;27;20050;-67
2024/01/02 11:14:39;;;;;;;1.70;1.40;;;;;;;;;;5153595;27;20050;-67
2024/01/02 11:17:06;;;;;;;1.70;1.42;;;;;;;;;;5153869;27;20043;-67
2024/01/02 11:19:36;;;;;;;2.05;1.55;;;;;;;;;;5153956;27;20399;-68
2024/01/02 11:22:08;;;;;;;1.80;1.13;;;;;;;;;;5154059;27;20057;-67
2024/01/02 11:24:35;;;;;;;1.90;1.52;;;;;;;;;;5153924;27;20051;-67
2024/01/02 11:27:04;;;;;;;1.33;1.00;;;;;;;;;;5153846;27;20055;-67
2024/01/02 11:29:35;;;;;;;1.40;1.00;;;;;;;;;;5153474;27;20046;-67
2024/01/02 11:32:05;;;;;;;1.30;0.90;;;;;;;;;;5153888;27;20383;-67
2024/01/02 11:34:44;;;;;;;1.15;0.77;;;;;;;;;;5153694;27;20150;-67
2024/01/02 11:37:20;;;;;;;1.73;0.70;;;;;;;;;;5153132;27;20070;-68
2024/01/02 11:39:54;;;;;;;2.20;0.77;;;;;;;;;;5153834;27;20055;-67
2024/01/02 11:42:24;;;;;;;1.20;0.70;;;;;;;;;;5153888;27;20096;-67
2024/01/02 11:44:54;;;;;;;1.17;0.57;;;;;;;;;;5153832;27;20073;-68
2024/01/02 11:47:20;;;;;;;;;;;;;;;;;;5154439;27;20403;-68
2024/01/02 11:49:49;;;;;;;1.05;0.50;;;;;;;;;;5153675;27;19919;-68
2024/01/02 11:52:19;;;;;;;1.30;0.70;;;;;;;;;;5153739;27;20474;-68
2024/01/02 11:54:52;;;;;;;1.38;0.73;;;;;;;;;;5153565;27;20496;-68
2024/01/02 11:57:22;;;;;;;1.23;0.40;;;;;;;;;;5155116;27;20050;-68
2024/01/02 11:59:57;;;;;;;1.63;0.60;;;;;;;;;;5157215;27;20119;-67
2024/01/02 12:02:30;;;;;;;1.77;0.50;;;;;;;;;;5157474;27;20046;-68
2024/01/02 12:05:05;;;;;;;0.73;0.40;;;;;;;;;;5156956;27;20055;-68
2024/01/02 12:07:37;;;;;;;1.50;0.60;;;;;;;;;;5157227;27;20372;-68
2024/01/02 12:10:05;;;;;;;1.00;0.60;;;;;;;;;;5156874;27;20423;-68
2024/01/02 12:12:38;;;;;;;1.30;0.70;;;;;;;;;;5157393;27;20373;-68
2024/01/02 12:15:06;;;;;;;1.10;0.60;;;;;;;;;;5156839;27;20051;-68
2024/01/02 12:17:35;;;;;;;1.10;0.70;;;;;;;;;;5156895;27;20050;-68
2024/01/02 12:20:04;;;;;;;0.90;0.55;;;;;;;;;;5157055;27;20051;-68
2024/01/02 12:22:34;;;;;;;1.42;0.50;;;;;;;;;;5157192;27;20054;-69
2024/01/02 12:25:01;;;;;;;0.68;0.30;;;;;;;;;;5156547;27;20050;-67
2024/01/02 12:27:28;;;;;;;0.60;0.40;;;;;;;;;;5157160;27;20054;-69
2024/01/02 12:29:57;;;;;;;0.47;0.30;;;;;;;;;;5156900;27;20162;-68
2024/01/02 12:32:33;;;;;;;0.60;0.30;;;;;;;;;;5156525;27;20054;-68
2024/01/02 12:35:02;;;;;;;1.83;0.32;;;;;;;;;;5156721;27;20054;-68
2024/01/02 12:37:36;;;;;;;0.88;0.43;;;;;;;;;;5156288;27;20051;-68
2024/01/02 12:40:06;;;;;;;0.82;0.50;;;;;;;;;;5156473;27;20050;-67
2024/01/02 12:42:35;;;;;;;1.33;0.40;;;;;;;;;;5156745;27;20055;-67
2024/01/02 12:45:03;;;;;;;0.65;0.30;;;;;;;;;;5156056;27;20050;-67
2024/01/02 12:47:32;;;;;;;0.38;0.35;;;;;;;;;;5156148;27;20050;-67
2024/01/02 12:50:02;;;;;;;0.60;0.40;;;;;;;;;;5156052;27;20487;-67
2024/01/02 12:52:32;;;;;;;1.00;0.50;;;;;;;;;;5156555;27;20046;-67
2024/01/02 12:55:00;;;;;;;0.80;0.40;;;;;;;;;;5155764;27;20061;-68
2024/01/02 12:57:32;;;;;;;0.43;0.30;;;;;;;;;;5156179;27;20050;-68
2024/01/02 12:59:59;;;;;;;0.82;0.40;;;;;;;;;;5156332;27;20050;-68
2024/01/02 13:02:27;;;;;;;0.80;0.40;;;;;;;;;;5156664;27;20054;-67
2024/01/02 13:04:54;;;;;;;0.90;0.40;;;;;;;;;;5155869;27;20057;-67
2024/01/02 13:07:21;;;;;;;1.15;0.40;;;;;;;;;;5155948;27;20053;-68
2024/01/02 13:09:48;;;;;;;0.70;0.40;;;;;;;;;;5155694;27;20514;-67
2024/01/02 13:12:15;;;;;;;1.08;0.60;;;;;;;;;;5156273;27;20057;-67
2024/01/02 13:14:45;;;;;;;2.25;0.40;;;;;;;;;;5156074;27;20050;-67
2024/01/02 13:17:14;;;;;;;1.20;0.30;;;;;;;;;;5155647;27;20047;-68
2024/01/02 13:19:42;;;;;;;0.70;0.40;;;;;;;;;;5155562;27;20057;-68
2024/01/02 13:22:09;;;;;;;0.68;0.32;;;;;;;;;;5155737;27;20055;-69
2024/01/02 13:24:45;;;;;;;0.63;0.30;;;;;;;;;;5155719;27;20062;-68
2024/01/02 13:27:13;;;;;;;0.52;0.30;;;;;;;;;;5155503;27;20069;-68
2024/01/02 13:29:45;;;;;;;1.20;0.40;;;;;;;;;;5155477;27;20493;-68
2024/01/02 13:32:14;;;;;;;0.65;0.30;;;;;;;;;;5155638;27;20055;-68
2024/01/02 13:34:40;;;;;;;2.50;0.70;;;;;;;;;;5155546;27;20082;-68
2024/01/02 13:37:08;;;;;;;2.67;0.40;;;;;;;;;;5154733;27;20057;-67
2024/01/02 13:39:36;;;;;;;0.60;0.40;;;;;;;;;;5155599;27;20502;-67
2024/01/02 13:42:03;;;;;;;1.50;0.50;;;;;;;;;;5155117;27;20055;-68
2024/01/02 13:44:31;;;;;;;1.83;0.52;;;;;;;;;;5155235;27;20488;-68
2024/01/02 13:46:58;;;;;;;2.17;0.47;;;;;;;;;;5155375;27;20062;-68
2024/01/02 13:49:39;;;;;;;5.43;0.63;;;;;;;;;;5154833;27;20049;-67
2024/01/02 13:52:08;;;;;;;3.38;0.50;;;;;;;;;;5155078;27;20399;-67
2024/01/02 13:54:41;;;;;;;2.55;0.50;;;;;;;;;;5155088;27;20554;-67
2024/01/02 13:57:07;;;;;;;1.08;0.40;;;;;;;;;;5155124;27;20412;-67
2024/01/02 13:59:35;;;;;;;1.00;0.50;;;;;;;;;;5154995;27;20407;-67
2024/01/02 14:02:12;;;;;;;3.72;0.60;;;;;;;;;;5155138;27;20062;-67
2024/01/02 14:04:40;;;;;;;1.63;0.55;;;;;;;;;;5154806;27;20051;-67
2024/01/02 14:07:09;;;;;;;2.28;0.60;;;;;;;;;;5155017;27;20051;-67
2024/01/02 14:09:43;;;;;;;2.88;0.70;;;;;;;;;;5155067;27;20053;-67
2024/01/02 14:12:10;;;;;;;1.48;0.52;;;;;;;;;;5154772;27;20062;-67
2024/01/02 14:14:41;;;;;;;3.00;0.50;;;;;;;;;;5154657;27;20051;-67
2024/01/02 14:17:11;;;;;;;1.65;0.50;;;;;;;;;;5154953;27;20055;-67
2024/01/02 14:19:39;;;;;;;0.70;0.30;;;;;;;;;;5153836;27;20051;-67
2024/01/02 14:22:16;;;;;;;0.73;0.30;;;;;;;;;;5154910;27;20047;-67
2024/01/02 14:24:51;;;;;;;0.82;0.40;;;;;;;;;;5154177;27;20058;-67
2024/01/02 14:27:19;;;;;;;1.00;0.50;;;;;;;;;;5154438;27;20399;-67
2024/01/02 14:29:52;;;;;;;0.50;0.30;;;;;;;;;;5154284;27;20053;-67
2024/01/02 14:32:22;;;;;;;1.08;0.47;;;;;;;;;;5154690;27;20047;-67
2024/01/02 14:34:54;;;;;;;2.72;0.40;;;;;;;;;;5154390;27;20050;-67
2024/01/02 14:37:27;;;;;;;1.30;0.60;;;;;;;;;;5154187;27;20047;-67
2024/01/02 14:40:03;;;;;;;1.38;0.50;;;;;;;;;;5154614;27;20491;-67
2024/01/02 14:42:44;;;;;;;1.88;0.30;;;;;;;;;;5154514;27;20062;-67
2024/01/02 14:45:17;;;;;;;1.23;0.50;;;;;;;;;;5151531;27;20505;-67
2024/01/02 14:47:48;;;;;;;1.05;0.55;;;;;;;;;;5137575;27;20046;-67
2024/01/02 14:50:19;;;;;;;1.23;0.50;;;;;;;;;;5154142;27;20058;-66